sensor_id;sensor_type;location;lat;lon;timestamp;P1;durP1;ratioP1;P2;durP2;ratioP2
59972;SDS011;55298;-36.624;-64.282;2023-05-07T00:00:28;32.35;;;15.95;;
59972;SDS011;55298;-36.624;-64.282;2023-05-07T00:02:56;29.70;;;15.70;;
59972;SDS011;55298;-36.624;-64.282;2023-05-07T00:05:24;31.88;;;16.58;;
59972;SDS011;55298;-36.624;-64.282;2023-05-07T00:07:52;27.42;;;16.45;;
59972;SDS011;55298;-36.624;-64.282;2023-05-07T00:10:20;29.80;;;17.77;;
59972;SDS011;55298;-36.624;-64.282;2023-05-07T00:12:47;38.60;;;18.75;;
59972;SDS011;55298;-36.624;-64.282;2023-05-07T00:15:15;29.75;;;16.77;;
59972;SDS011;55298;-36.624;-64.282;2023-05-07T00:17:43;37.15;;;20.92;;
59972;SDS011;55298;-36.624;-64.282;2023-05-07T00:20:11;34.28;;;18.60;;
59972;SDS011;55298;-36.624;-64.282;2023-05-07T00:22:39;36.17;;;17.90;;
59972;SDS011;55298;-36.624;-64.282;2023-05-07T00:25:07;30.67;;;17.33;;
59972;SDS011;55298;-36.624;-64.282;2023-05-07T00:27:35;31.95;;;17.75;;
59972;SDS011;55298;-36.624;-64.282;2023-05-07T00:30:03;35.25;;;18.27;;
59972;SDS011;55298;-36.624;-64.282;2023-05-07T00:32:32;35.00;;;20.15;;
59972;SDS011;55298;-36.624;-64.282;2023-05-07T00:35:00;30.88;;;19.20;;
59972;SDS011;55298;-36.624;-64.282;2023-05-07T00:37:28;32.92;;;21.13;;
59972;SDS011;55298;-36.624;-64.282;2023-05-07T00:39:56;34.42;;;22.10;;
59972;SDS011;55298;-36.624;-64.282;2023-05-07T00:42:23;33.38;;;20.63;;
59972;SDS011;55298;-36.624;-64.282;2023-05-07T00:44:51;28.80;;;17.73;;
59972;SDS011;55298;-36.624;-64.282;2023-05-07T00:47:19;37.63;;;18.42;;
59972;SDS011;55298;-36.624;-64.282;2023-05-07T00:49:47;29.17;;;16.50;;
59972;SDS011;55298;-36.624;-64.282;2023-05-07T00:52:15;29.90;;;16.70;;
59972;SDS011;55298;-36.624;-64.282;2023-05-07T00:54:43;34.17;;;17.00;;
59972;SDS011;55298;-36.624;-64.282;2023-05-07T00:57:12;26.30;;;16.80;;
59972;SDS011;55298;-36.624;-64.282;2023-05-07T00:59:41;23.00;;;14.98;;
59972;SDS011;55298;-36.624;-64.282;2023-05-07T01:02:08;23.27;;;15.35;;
59972;SDS011;55298;-36.624;-64.282;2023-05-07T01:04:36;27.73;;;16.60;;
59972;SDS011;55298;-36.624;-64.282;2023-05-07T01:07:04;30.55;;;18.00;;
59972;SDS011;55298;-36.624;-64.282;2023-05-07T01:09:32;27.65;;;15.68;;
59972;SDS011;55298;-36.624;-64.282;2023-05-07T01:12:02;26.75;;;16.65;;
59972;SDS011;55298;-36.624;-64.282;2023-05-07T01:14:32;24.13;;;14.27;;
59972;SDS011;55298;-36.624;-64.282;2023-05-07T01:17:00;22.08;;;13.82;;
59972;SDS011;55298;-36.624;-64.282;2023-05-07T01:19:28;19.40;;;13.05;;
59972;SDS011;55298;-36.624;-64.282;2023-05-07T01:21:59;17.23;;;12.00;;
59972;SDS011;55298;-36.624;-64.282;2023-05-07T01:24:30;34.42;;;18.42;;
59972;SDS011;55298;-36.624;-64.282;2023-05-07T01:27:00;34.90;;;21.90;;
59972;SDS011;55298;-36.624;-64.282;2023-05-07T01:29:28;35.90;;;22.15;;
59972;SDS011;55298;-36.624;-64.282;2023-05-07T01:31:57;38.83;;;24.20;;
59972;SDS011;55298;-36.624;-64.282;2023-05-07T01:34:27;35.45;;;21.52;;
59972;SDS011;55298;-36.624;-64.282;2023-05-07T01:36:57;26.70;;;17.60;;
59972;SDS011;55298;-36.624;-64.282;2023-05-07T01:39:27;33.88;;;21.80;;
59972;SDS011;55298;-36.624;-64.282;2023-05-07T01:41:56;21.92;;;13.88;;
59972;SDS011;55298;-36.624;-64.282;2023-05-07T01:44:25;22.13;;;14.38;;
59972;SDS011;55298;-36.624;-64.282;2023-05-07T01:46:54;21.35;;;12.70;;
59972;SDS011;55298;-36.624;-64.282;2023-05-07T01:49:23;16.02;;;11.52;;
59972;SDS011;55298;-36.624;-64.282;2023-05-07T01:51:52;16.88;;;10.90;;
59972;SDS011;55298;-36.624;-64.282;2023-05-07T01:54:25;16.45;;;11.13;;
59972;SDS011;55298;-36.624;-64.282;2023-05-07T01:56:55;27.75;;;15.73;;
59972;SDS011;55298;-36.624;-64.282;2023-05-07T01:59:23;25.80;;;15.80;;
59972;SDS011;55298;-36.624;-64.282;2023-05-07T02:01:51;23.70;;;14.02;;
59972;SDS011;55298;-36.624;-64.282;2023-05-07T02:04:19;21.67;;;13.05;;
59972;SDS011;55298;-36.624;-64.282;2023-05-07T02:06:47;19.30;;;11.80;;
59972;SDS011;55298;-36.624;-64.282;2023-05-07T02:09:15;12.85;;;8.30;;
59972;SDS011;55298;-36.624;-64.282;2023-05-07T02:11:43;15.98;;;9.20;;
59972;SDS011;55298;-36.624;-64.282;2023-05-07T02:14:11;12.75;;;8.52;;
59972;SDS011;55298;-36.624;-64.282;2023-05-07T02:16:39;11.07;;;7.68;;
59972;SDS011;55298;-36.624;-64.282;2023-05-07T02:19:07;11.40;;;7.63;;
59972;SDS011;55298;-36.624;-64.282;2023-05-07T02:21:36;9.85;;;6.78;;
59972;SDS011;55298;-36.624;-64.282;2023-05-07T02:24:03;9.75;;;7.95;;
59972;SDS011;55298;-36.624;-64.282;2023-05-07T02:26:31;12.30;;;7.72;;
59972;SDS011;55298;-36.624;-64.282;2023-05-07T02:28:59;9.90;;;7.18;;
59972;SDS011;55298;-36.624;-64.282;2023-05-07T02:31:28;12.68;;;7.90;;
59972;SDS011;55298;-36.624;-64.282;2023-05-07T02:33:55;10.90;;;8.10;;
59972;SDS011;55298;-36.624;-64.282;2023-05-07T02:36:23;11.35;;;7.05;;
59972;SDS011;55298;-36.624;-64.282;2023-05-07T02:38:52;8.15;;;5.63;;
59972;SDS011;55298;-36.624;-64.282;2023-05-07T02:41:20;10.98;;;5.55;;
59972;SDS011;55298;-36.624;-64.282;2023-05-07T02:43:49;8.23;;;6.70;;
59972;SDS011;55298;-36.624;-64.282;2023-05-07T02:46:17;8.00;;;7.13;;
59972;SDS011;55298;-36.624;-64.282;2023-05-07T02:48:44;22.67;;;14.50;;
59972;SDS011;55298;-36.624;-64.282;2023-05-07T02:51:12;17.10;;;13.15;;
59972;SDS011;55298;-36.624;-64.282;2023-05-07T02:53:40;7.68;;;6.40;;
59972;SDS011;55298;-36.624;-64.282;2023-05-07T02:56:08;7.20;;;4.80;;
59972;SDS011;55298;-36.624;-64.282;2023-05-07T02:58:35;9.73;;;5.13;;
59972;SDS011;55298;-36.624;-64.282;2023-05-07T03:01:05;6.80;;;5.20;;
59972;SDS011;55298;-36.624;-64.282;2023-05-07T03:03:33;6.32;;;5.65;;
59972;SDS011;55298;-36.624;-64.282;2023-05-07T03:06:01;9.18;;;5.70;;
59972;SDS011;55298;-36.624;-64.282;2023-05-07T03:08:29;8.98;;;5.43;;
59972;SDS011;55298;-36.624;-64.282;2023-05-07T03:10:57;9.52;;;7.88;;
59972;SDS011;55298;-36.624;-64.282;2023-05-07T03:13:25;22.50;;;14.43;;
59972;SDS011;55298;-36.624;-64.282;2023-05-07T03:15:52;10.50;;;6.75;;
59972;SDS011;55298;-36.624;-64.282;2023-05-07T03:18:20;13.55;;;7.15;;
59972;SDS011;55298;-36.624;-64.282;2023-05-07T03:20:48;16.25;;;13.23;;
59972;SDS011;55298;-36.624;-64.282;2023-05-07T03:23:16;15.15;;;12.43;;
59972;SDS011;55298;-36.624;-64.282;2023-05-07T03:25:44;19.65;;;14.95;;
59972;SDS011;55298;-36.624;-64.282;2023-05-07T03:28:15;14.93;;;11.73;;
59972;SDS011;55298;-36.624;-64.282;2023-05-07T03:30:42;10.73;;;9.35;;
59972;SDS011;55298;-36.624;-64.282;2023-05-07T03:33:10;11.85;;;9.93;;
59972;SDS011;55298;-36.624;-64.282;2023-05-07T03:35:38;7.78;;;6.97;;
59972;SDS011;55298;-36.624;-64.282;2023-05-07T03:38:06;7.47;;;6.57;;
59972;SDS011;55298;-36.624;-64.282;2023-05-07T03:40:35;8.70;;;6.30;;
59972;SDS011;55298;-36.624;-64.282;2023-05-07T03:43:02;6.50;;;5.18;;
59972;SDS011;55298;-36.624;-64.282;2023-05-07T03:45:30;7.90;;;5.38;;
59972;SDS011;55298;-36.624;-64.282;2023-05-07T03:47:58;6.82;;;5.30;;
59972;SDS011;55298;-36.624;-64.282;2023-05-07T03:50:25;7.30;;;4.93;;
59972;SDS011;55298;-36.624;-64.282;2023-05-07T03:52:53;9.85;;;6.10;;
59972;SDS011;55298;-36.624;-64.282;2023-05-07T03:55:21;7.53;;;4.78;;
59972;SDS011;55298;-36.624;-64.282;2023-05-07T03:57:48;4.28;;;3.88;;
59972;SDS011;55298;-36.624;-64.282;2023-05-07T04:00:16;5.75;;;4.38;;
59972;SDS011;55298;-36.624;-64.282;2023-05-07T04:02:45;8.50;;;5.03;;
59972;SDS011;55298;-36.624;-64.282;2023-05-07T04:05:13;8.98;;;6.13;;
59972;SDS011;55298;-36.624;-64.282;2023-05-07T04:07:42;7.50;;;5.25;;
59972;SDS011;55298;-36.624;-64.282;2023-05-07T04:10:10;6.72;;;4.30;;
59972;SDS011;55298;-36.624;-64.282;2023-05-07T04:12:39;6.15;;;4.88;;
59972;SDS011;55298;-36.624;-64.282;2023-05-07T04:15:06;7.30;;;5.53;;
59972;SDS011;55298;-36.624;-64.282;2023-05-07T04:17:34;7.35;;;5.22;;
59972;SDS011;55298;-36.624;-64.282;2023-05-07T04:20:02;5.70;;;3.90;;
59972;SDS011;55298;-36.624;-64.282;2023-05-07T04:22:32;7.05;;;3.80;;
59972;SDS011;55298;-36.624;-64.282;2023-05-07T04:25:00;8.48;;;4.60;;
59972;SDS011;55298;-36.624;-64.282;2023-05-07T04:27:29;6.05;;;4.20;;
59972;SDS011;55298;-36.624;-64.282;2023-05-07T04:29:56;4.70;;;3.38;;
59972;SDS011;55298;-36.624;-64.282;2023-05-07T04:32:26;5.80;;;3.67;;
59972;SDS011;55298;-36.624;-64.282;2023-05-07T04:34:56;6.70;;;4.22;;
59972;SDS011;55298;-36.624;-64.282;2023-05-07T04:37:25;6.82;;;4.97;;
59972;SDS011;55298;-36.624;-64.282;2023-05-07T04:39:52;7.20;;;3.90;;
59972;SDS011;55298;-36.624;-64.282;2023-05-07T04:42:20;5.47;;;3.90;;
59972;SDS011;55298;-36.624;-64.282;2023-05-07T04:44:52;9.40;;;4.75;;
59972;SDS011;55298;-36.624;-64.282;2023-05-07T04:47:20;5.85;;;4.15;;
59972;SDS011;55298;-36.624;-64.282;2023-05-07T04:49:48;6.60;;;4.82;;
59972;SDS011;55298;-36.624;-64.282;2023-05-07T04:52:17;12.63;;;5.18;;
59972;SDS011;55298;-36.624;-64.282;2023-05-07T04:54:45;9.10;;;4.25;;
59972;SDS011;55298;-36.624;-64.282;2023-05-07T04:57:13;7.97;;;5.18;;
59972;SDS011;55298;-36.624;-64.282;2023-05-07T04:59:42;6.22;;;4.57;;
59972;SDS011;55298;-36.624;-64.282;2023-05-07T05:02:12;7.20;;;4.93;;
59972;SDS011;55298;-36.624;-64.282;2023-05-07T05:04:39;10.52;;;5.18;;
59972;SDS011;55298;-36.624;-64.282;2023-05-07T05:07:07;7.28;;;5.30;;
59972;SDS011;55298;-36.624;-64.282;2023-05-07T05:09:35;10.32;;;5.82;;
59972;SDS011;55298;-36.624;-64.282;2023-05-07T05:12:03;6.45;;;4.57;;
59972;SDS011;55298;-36.624;-64.282;2023-05-07T05:14:32;6.18;;;4.00;;
59972;SDS011;55298;-36.624;-64.282;2023-05-07T05:17:00;7.40;;;3.95;;
59972;SDS011;55298;-36.624;-64.282;2023-05-07T05:19:29;7.57;;;4.32;;
59972;SDS011;55298;-36.624;-64.282;2023-05-07T05:21:57;4.32;;;3.60;;
59972;SDS011;55298;-36.624;-64.282;2023-05-07T05:24:26;3.80;;;3.47;;
59972;SDS011;55298;-36.624;-64.282;2023-05-07T05:26:54;4.15;;;3.83;;
59972;SDS011;55298;-36.624;-64.282;2023-05-07T05:29:22;7.65;;;3.88;;
59972;SDS011;55298;-36.624;-64.282;2023-05-07T05:31:51;5.53;;;3.63;;
59972;SDS011;55298;-36.624;-64.282;2023-05-07T05:34:19;5.13;;;4.10;;
59972;SDS011;55298;-36.624;-64.282;2023-05-07T05:36:47;3.80;;;3.50;;
59972;SDS011;55298;-36.624;-64.282;2023-05-07T05:39:15;9.00;;;4.45;;
59972;SDS011;55298;-36.624;-64.282;2023-05-07T05:41:43;8.45;;;5.03;;
59972;SDS011;55298;-36.624;-64.282;2023-05-07T05:44:10;5.47;;;4.43;;
59972;SDS011;55298;-36.624;-64.282;2023-05-07T05:46:38;8.95;;;7.07;;
59972;SDS011;55298;-36.624;-64.282;2023-05-07T05:49:06;5.18;;;4.55;;
59972;SDS011;55298;-36.624;-64.282;2023-05-07T05:51:34;7.45;;;5.70;;
59972;SDS011;55298;-36.624;-64.282;2023-05-07T05:54:02;10.48;;;6.05;;
59972;SDS011;55298;-36.624;-64.282;2023-05-07T05:56:30;6.28;;;5.65;;
59972;SDS011;55298;-36.624;-64.282;2023-05-07T05:58:58;5.30;;;3.50;;
59972;SDS011;55298;-36.624;-64.282;2023-05-07T06:01:26;5.80;;;3.25;;
59972;SDS011;55298;-36.624;-64.282;2023-05-07T06:03:54;5.05;;;3.28;;
59972;SDS011;55298;-36.624;-64.282;2023-05-07T06:06:22;4.95;;;2.80;;
59972;SDS011;55298;-36.624;-64.282;2023-05-07T06:08:50;4.70;;;3.25;;
59972;SDS011;55298;-36.624;-64.282;2023-05-07T06:11:17;4.60;;;3.25;;
59972;SDS011;55298;-36.624;-64.282;2023-05-07T06:13:45;7.15;;;4.25;;
59972;SDS011;55298;-36.624;-64.282;2023-05-07T06:16:13;3.97;;;3.60;;
59972;SDS011;55298;-36.624;-64.282;2023-05-07T06:18:41;8.43;;;5.70;;
59972;SDS011;55298;-36.624;-64.282;2023-05-07T06:21:10;8.90;;;4.43;;
59972;SDS011;55298;-36.624;-64.282;2023-05-07T06:23:40;6.65;;;4.00;;
59972;SDS011;55298;-36.624;-64.282;2023-05-07T06:26:07;6.53;;;4.38;;
59972;SDS011;55298;-36.624;-64.282;2023-05-07T06:28:35;6.90;;;3.55;;
59972;SDS011;55298;-36.624;-64.282;2023-05-07T06:31:12;8.35;;;3.80;;
59972;SDS011;55298;-36.624;-64.282;2023-05-07T06:33:41;4.50;;;3.95;;
59972;SDS011;55298;-36.624;-64.282;2023-05-07T06:36:11;8.05;;;4.82;;
59972;SDS011;55298;-36.624;-64.282;2023-05-07T06:38:39;5.35;;;4.45;;
59972;SDS011;55298;-36.624;-64.282;2023-05-07T06:41:06;5.95;;;4.30;;
59972;SDS011;55298;-36.624;-64.282;2023-05-07T06:43:34;5.03;;;3.53;;
59972;SDS011;55298;-36.624;-64.282;2023-05-07T06:46:02;5.97;;;4.00;;
59972;SDS011;55298;-36.624;-64.282;2023-05-07T06:48:30;7.57;;;4.75;;
59972;SDS011;55298;-36.624;-64.282;2023-05-07T06:50:58;6.28;;;3.88;;
59972;SDS011;55298;-36.624;-64.282;2023-05-07T06:53:26;6.43;;;3.78;;
59972;SDS011;55298;-36.624;-64.282;2023-05-07T06:55:56;5.15;;;2.95;;
59972;SDS011;55298;-36.624;-64.282;2023-05-07T06:58:24;3.28;;;3.08;;
59972;SDS011;55298;-36.624;-64.282;2023-05-07T07:00:52;6.70;;;3.63;;
59972;SDS011;55298;-36.624;-64.282;2023-05-07T07:03:19;3.50;;;3.20;;
59972;SDS011;55298;-36.624;-64.282;2023-05-07T07:05:47;4.88;;;3.60;;
59972;SDS011;55298;-36.624;-64.282;2023-05-07T07:08:19;10.02;;;4.43;;
59972;SDS011;55298;-36.624;-64.282;2023-05-07T07:10:48;5.68;;;3.92;;
59972;SDS011;55298;-36.624;-64.282;2023-05-07T07:13:15;4.60;;;3.80;;
59972;SDS011;55298;-36.624;-64.282;2023-05-07T07:15:43;5.88;;;4.22;;
59972;SDS011;55298;-36.624;-64.282;2023-05-07T07:18:11;5.25;;;3.90;;
59972;SDS011;55298;-36.624;-64.282;2023-05-07T07:20:39;6.25;;;4.03;;
59972;SDS011;55298;-36.624;-64.282;2023-05-07T07:23:06;5.32;;;3.78;;
59972;SDS011;55298;-36.624;-64.282;2023-05-07T07:25:34;6.90;;;3.65;;
59972;SDS011;55298;-36.624;-64.282;2023-05-07T07:28:02;4.00;;;3.70;;
59972;SDS011;55298;-36.624;-64.282;2023-05-07T07:30:30;4.70;;;3.45;;
59972;SDS011;55298;-36.624;-64.282;2023-05-07T07:32:57;3.90;;;3.55;;
59972;SDS011;55298;-36.624;-64.282;2023-05-07T07:35:29;4.13;;;3.72;;
59972;SDS011;55298;-36.624;-64.282;2023-05-07T07:37:57;4.55;;;3.35;;
59972;SDS011;55298;-36.624;-64.282;2023-05-07T07:40:25;5.78;;;3.70;;
59972;SDS011;55298;-36.624;-64.282;2023-05-07T07:42:53;7.32;;;3.78;;
59972;SDS011;55298;-36.624;-64.282;2023-05-07T07:45:21;9.02;;;4.25;;
59972;SDS011;55298;-36.624;-64.282;2023-05-07T07:47:49;5.15;;;3.05;;
59972;SDS011;55298;-36.624;-64.282;2023-05-07T07:50:16;4.80;;;3.65;;
59972;SDS011;55298;-36.624;-64.282;2023-05-07T07:52:44;5.68;;;3.60;;
59972;SDS011;55298;-36.624;-64.282;2023-05-07T07:55:12;4.88;;;3.55;;
59972;SDS011;55298;-36.624;-64.282;2023-05-07T07:57:46;3.78;;;3.53;;
59972;SDS011;55298;-36.624;-64.282;2023-05-07T08:00:14;5.28;;;3.53;;
59972;SDS011;55298;-36.624;-64.282;2023-05-07T08:02:42;5.38;;;3.90;;
59972;SDS011;55298;-36.624;-64.282;2023-05-07T08:05:10;5.55;;;4.38;;
59972;SDS011;55298;-36.624;-64.282;2023-05-07T08:07:38;6.50;;;4.32;;
59972;SDS011;55298;-36.624;-64.282;2023-05-07T08:10:06;4.28;;;3.70;;
59972;SDS011;55298;-36.624;-64.282;2023-05-07T08:12:34;5.63;;;3.83;;
59972;SDS011;55298;-36.624;-64.282;2023-05-07T08:15:02;4.22;;;3.88;;
59972;SDS011;55298;-36.624;-64.282;2023-05-07T08:17:30;5.65;;;4.85;;
59972;SDS011;55298;-36.624;-64.282;2023-05-07T08:19:58;6.88;;;3.85;;
59972;SDS011;55298;-36.624;-64.282;2023-05-07T08:22:25;7.55;;;3.90;;
59972;SDS011;55298;-36.624;-64.282;2023-05-07T08:24:53;5.90;;;3.20;;
59972;SDS011;55298;-36.624;-64.282;2023-05-07T08:27:22;4.68;;;3.28;;
59972;SDS011;55298;-36.624;-64.282;2023-05-07T08:29:50;4.43;;;3.33;;
59972;SDS011;55298;-36.624;-64.282;2023-05-07T08:32:17;3.00;;;2.80;;
59972;SDS011;55298;-36.624;-64.282;2023-05-07T08:34:45;5.38;;;3.30;;
59972;SDS011;55298;-36.624;-64.282;2023-05-07T08:37:14;3.67;;;3.33;;
59972;SDS011;55298;-36.624;-64.282;2023-05-07T08:39:42;3.60;;;3.40;;
59972;SDS011;55298;-36.624;-64.282;2023-05-07T08:42:09;4.38;;;2.92;;
59972;SDS011;55298;-36.624;-64.282;2023-05-07T08:44:38;5.20;;;3.50;;
59972;SDS011;55298;-36.624;-64.282;2023-05-07T08:47:06;6.85;;;4.43;;
59972;SDS011;55298;-36.624;-64.282;2023-05-07T08:49:34;7.03;;;3.80;;
59972;SDS011;55298;-36.624;-64.282;2023-05-07T08:52:02;8.95;;;3.40;;
59972;SDS011;55298;-36.624;-64.282;2023-05-07T08:54:30;4.68;;;3.50;;
59972;SDS011;55298;-36.624;-64.282;2023-05-07T08:57:00;6.55;;;3.75;;
59972;SDS011;55298;-36.624;-64.282;2023-05-07T08:59:28;4.30;;;3.83;;
59972;SDS011;55298;-36.624;-64.282;2023-05-07T09:01:56;6.72;;;4.53;;
59972;SDS011;55298;-36.624;-64.282;2023-05-07T09:04:23;4.20;;;3.75;;
59972;SDS011;55298;-36.624;-64.282;2023-05-07T09:06:51;4.18;;;3.88;;
59972;SDS011;55298;-36.624;-64.282;2023-05-07T09:09:19;6.10;;;3.45;;
59972;SDS011;55298;-36.624;-64.282;2023-05-07T09:11:48;7.38;;;3.55;;
59972;SDS011;55298;-36.624;-64.282;2023-05-07T09:14:25;6.00;;;3.40;;
59972;SDS011;55298;-36.624;-64.282;2023-05-07T09:16:53;4.90;;;3.75;;
59972;SDS011;55298;-36.624;-64.282;2023-05-07T09:19:22;5.20;;;3.70;;
59972;SDS011;55298;-36.624;-64.282;2023-05-07T09:22:03;3.88;;;3.58;;
59972;SDS011;55298;-36.624;-64.282;2023-05-07T09:24:33;5.15;;;4.30;;
59972;SDS011;55298;-36.624;-64.282;2023-05-07T09:27:04;5.00;;;3.85;;
59972;SDS011;55298;-36.624;-64.282;2023-05-07T09:29:34;4.63;;;3.78;;
59972;SDS011;55298;-36.624;-64.282;2023-05-07T09:32:05;4.20;;;3.80;;
59972;SDS011;55298;-36.624;-64.282;2023-05-07T09:34:34;5.25;;;4.13;;
59972;SDS011;55298;-36.624;-64.282;2023-05-07T09:37:03;4.97;;;3.72;;
59972;SDS011;55298;-36.624;-64.282;2023-05-07T09:42:12;5.75;;;4.25;;
59972;SDS011;55298;-36.624;-64.282;2023-05-07T09:44:41;6.05;;;4.32;;
59972;SDS011;55298;-36.624;-64.282;2023-05-07T09:47:10;4.35;;;3.90;;
59972;SDS011;55298;-36.624;-64.282;2023-05-07T09:49:44;4.60;;;4.20;;
59972;SDS011;55298;-36.624;-64.282;2023-05-07T09:52:14;7.15;;;3.83;;
59972;SDS011;55298;-36.624;-64.282;2023-05-07T09:54:42;5.22;;;3.85;;
59972;SDS011;55298;-36.624;-64.282;2023-05-07T09:57:11;4.85;;;3.50;;
59972;SDS011;55298;-36.624;-64.282;2023-05-07T09:59:39;6.32;;;4.20;;
59972;SDS011;55298;-36.624;-64.282;2023-05-07T10:02:10;5.22;;;4.20;;
59972;SDS011;55298;-36.624;-64.282;2023-05-07T10:04:40;6.53;;;4.25;;
59972;SDS011;55298;-36.624;-64.282;2023-05-07T10:07:08;6.80;;;4.22;;
59972;SDS011;55298;-36.624;-64.282;2023-05-07T10:09:36;4.55;;;4.13;;
59972;SDS011;55298;-36.624;-64.282;2023-05-07T10:12:05;4.03;;;3.83;;
59972;SDS011;55298;-36.624;-64.282;2023-05-07T10:14:34;8.18;;;3.92;;
59972;SDS011;55298;-36.624;-64.282;2023-05-07T10:17:02;5.90;;;3.72;;
59972;SDS011;55298;-36.624;-64.282;2023-05-07T10:19:30;9.05;;;4.10;;
59972;SDS011;55298;-36.624;-64.282;2023-05-07T10:22:01;5.70;;;4.10;;
59972;SDS011;55298;-36.624;-64.282;2023-05-07T10:24:32;7.57;;;4.95;;
59972;SDS011;55298;-36.624;-64.282;2023-05-07T10:27:01;5.30;;;4.80;;
59972;SDS011;55298;-36.624;-64.282;2023-05-07T10:29:39;5.75;;;5.20;;
59972;SDS011;55298;-36.624;-64.282;2023-05-07T10:35:11;6.18;;;4.97;;
59972;SDS011;55298;-36.624;-64.282;2023-05-07T10:37:44;5.38;;;4.88;;
59972;SDS011;55298;-36.624;-64.282;2023-05-07T10:40:13;4.88;;;4.38;;
59972;SDS011;55298;-36.624;-64.282;2023-05-07T10:45:22;5.05;;;4.55;;
59972;SDS011;55298;-36.624;-64.282;2023-05-07T10:50:37;4.72;;;4.32;;
59972;SDS011;55298;-36.624;-64.282;2023-05-07T10:55:52;5.80;;;4.90;;
59972;SDS011;55298;-36.624;-64.282;2023-05-07T10:58:52;10.23;;;4.97;;
59972;SDS011;55298;-36.624;-64.282;2023-05-07T11:01:49;5.53;;;5.05;;
59972;SDS011;55298;-36.624;-64.282;2023-05-07T11:04:17;6.63;;;5.35;;
59972;SDS011;55298;-36.624;-64.282;2023-05-07T11:12:46;13.00;;;6.10;;
59972;SDS011;55298;-36.624;-64.282;2023-05-07T11:15:15;9.07;;;6.22;;
59972;SDS011;55298;-36.624;-64.282;2023-05-07T11:18:02;9.07;;;7.03;;
59972;SDS011;55298;-36.624;-64.282;2023-05-07T11:26:13;8.27;;;6.30;;
59972;SDS011;55298;-36.624;-64.282;2023-05-07T11:28:43;7.07;;;6.13;;
59972;SDS011;55298;-36.624;-64.282;2023-05-07T11:31:11;14.55;;;6.95;;
59972;SDS011;55298;-36.624;-64.282;2023-05-07T11:33:39;8.73;;;7.18;;
59972;SDS011;55298;-36.624;-64.282;2023-05-07T11:36:08;10.40;;;7.00;;
59972;SDS011;55298;-36.624;-64.282;2023-05-07T11:38:36;10.80;;;6.65;;
59972;SDS011;55298;-36.624;-64.282;2023-05-07T11:41:04;9.52;;;5.90;;
59972;SDS011;55298;-36.624;-64.282;2023-05-07T11:43:33;8.10;;;6.25;;
59972;SDS011;55298;-36.624;-64.282;2023-05-07T11:46:05;11.32;;;6.15;;
59972;SDS011;55298;-36.624;-64.282;2023-05-07T11:48:36;8.60;;;6.07;;
59972;SDS011;55298;-36.624;-64.282;2023-05-07T11:51:07;7.65;;;6.53;;
59972;SDS011;55298;-36.624;-64.282;2023-05-07T11:53:39;8.48;;;7.32;;
59972;SDS011;55298;-36.624;-64.282;2023-05-07T11:56:10;10.85;;;7.82;;
59972;SDS011;55298;-36.624;-64.282;2023-05-07T11:58:40;11.15;;;7.43;;
59972;SDS011;55298;-36.624;-64.282;2023-05-07T12:01:09;11.77;;;7.63;;
59972;SDS011;55298;-36.624;-64.282;2023-05-07T12:03:40;10.35;;;7.13;;
59972;SDS011;55298;-36.624;-64.282;2023-05-07T12:06:11;11.00;;;7.75;;
59972;SDS011;55298;-36.624;-64.282;2023-05-07T12:08:40;10.10;;;5.93;;
59972;SDS011;55298;-36.624;-64.282;2023-05-07T12:11:12;9.77;;;6.28;;
59972;SDS011;55298;-36.624;-64.282;2023-05-07T12:13:43;12.68;;;6.30;;
59972;SDS011;55298;-36.624;-64.282;2023-05-07T12:16:11;14.02;;;6.30;;
59972;SDS011;55298;-36.624;-64.282;2023-05-07T12:18:40;9.18;;;5.72;;
59972;SDS011;55298;-36.624;-64.282;2023-05-07T12:21:08;6.47;;;4.78;;
59972;SDS011;55298;-36.624;-64.282;2023-05-07T12:23:36;9.73;;;5.90;;
59972;SDS011;55298;-36.624;-64.282;2023-05-07T12:26:04;7.85;;;5.50;;
59972;SDS011;55298;-36.624;-64.282;2023-05-07T12:28:36;8.57;;;6.50;;
59972;SDS011;55298;-36.624;-64.282;2023-05-07T12:31:04;8.00;;;5.90;;
59972;SDS011;55298;-36.624;-64.282;2023-05-07T12:33:34;8.68;;;5.78;;
59972;SDS011;55298;-36.624;-64.282;2023-05-07T12:36:05;8.38;;;5.60;;
59972;SDS011;55298;-36.624;-64.282;2023-05-07T12:38:35;10.02;;;5.88;;
59972;SDS011;55298;-36.624;-64.282;2023-05-07T12:41:05;8.18;;;6.07;;
59972;SDS011;55298;-36.624;-64.282;2023-05-07T12:43:34;8.57;;;5.50;;
59972;SDS011;55298;-36.624;-64.282;2023-05-07T12:46:04;7.00;;;5.32;;
59972;SDS011;55298;-36.624;-64.282;2023-05-07T12:48:35;6.72;;;5.18;;
59972;SDS011;55298;-36.624;-64.282;2023-05-07T12:51:09;10.35;;;6.15;;
59972;SDS011;55298;-36.624;-64.282;2023-05-07T12:53:40;12.30;;;5.60;;
59972;SDS011;55298;-36.624;-64.282;2023-05-07T12:56:08;9.02;;;5.88;;
59972;SDS011;55298;-36.624;-64.282;2023-05-07T12:58:37;5.53;;;4.53;;
59972;SDS011;55298;-36.624;-64.282;2023-05-07T13:01:06;9.02;;;4.03;;
59972;SDS011;55298;-36.624;-64.282;2023-05-07T13:03:36;6.22;;;4.40;;
59972;SDS011;55298;-36.624;-64.282;2023-05-07T13:06:06;8.38;;;5.07;;
59972;SDS011;55298;-36.624;-64.282;2023-05-07T13:08:36;20.30;;;14.05;;
59972;SDS011;55298;-36.624;-64.282;2023-05-07T13:11:07;9.80;;;8.80;;
59972;SDS011;55298;-36.624;-64.282;2023-05-07T13:13:36;5.82;;;4.07;;
59972;SDS011;55298;-36.624;-64.282;2023-05-07T13:16:08;5.78;;;3.90;;
59972;SDS011;55298;-36.624;-64.282;2023-05-07T13:18:38;10.05;;;4.32;;
59972;SDS011;55298;-36.624;-64.282;2023-05-07T13:21:09;5.20;;;3.72;;
59972;SDS011;55298;-36.624;-64.282;2023-05-07T13:23:38;7.55;;;4.00;;
59972;SDS011;55298;-36.624;-64.282;2023-05-07T13:26:06;6.03;;;3.67;;
59972;SDS011;55298;-36.624;-64.282;2023-05-07T13:28:34;4.35;;;3.30;;
59972;SDS011;55298;-36.624;-64.282;2023-05-07T13:31:02;7.25;;;3.60;;
59972;SDS011;55298;-36.624;-64.282;2023-05-07T13:33:31;5.10;;;3.75;;
59972;SDS011;55298;-36.624;-64.282;2023-05-07T13:35:58;9.00;;;4.60;;
59972;SDS011;55298;-36.624;-64.282;2023-05-07T13:38:27;7.13;;;4.60;;
59972;SDS011;55298;-36.624;-64.282;2023-05-07T13:40:55;7.88;;;7.07;;
59972;SDS011;55298;-36.624;-64.282;2023-05-07T13:43:24;6.07;;;4.40;;
59972;SDS011;55298;-36.624;-64.282;2023-05-07T13:45:52;5.57;;;5.03;;
59972;SDS011;55298;-36.624;-64.282;2023-05-07T13:48:20;5.78;;;5.18;;
59972;SDS011;55298;-36.624;-64.282;2023-05-07T13:50:48;5.75;;;4.40;;
59972;SDS011;55298;-36.624;-64.282;2023-05-07T13:53:16;4.97;;;4.28;;
59972;SDS011;55298;-36.624;-64.282;2023-05-07T13:55:44;4.57;;;3.58;;
59972;SDS011;55298;-36.624;-64.282;2023-05-07T13:58:12;7.20;;;2.83;;
59972;SDS011;55298;-36.624;-64.282;2023-05-07T14:00:40;4.40;;;3.50;;
59972;SDS011;55298;-36.624;-64.282;2023-05-07T14:03:07;6.20;;;3.90;;
59972;SDS011;55298;-36.624;-64.282;2023-05-07T14:05:36;6.53;;;3.80;;
59972;SDS011;55298;-36.624;-64.282;2023-05-07T14:08:03;6.13;;;2.97;;
59972;SDS011;55298;-36.624;-64.282;2023-05-07T14:10:33;6.47;;;3.58;;
59972;SDS011;55298;-36.624;-64.282;2023-05-07T14:13:01;4.20;;;2.83;;
59972;SDS011;55298;-36.624;-64.282;2023-05-07T14:15:29;5.32;;;3.75;;
59972;SDS011;55298;-36.624;-64.282;2023-05-07T14:17:59;4.68;;;3.20;;
59972;SDS011;55298;-36.624;-64.282;2023-05-07T14:20:28;5.13;;;3.20;;
59972;SDS011;55298;-36.624;-64.282;2023-05-07T14:22:56;4.18;;;3.33;;
59972;SDS011;55298;-36.624;-64.282;2023-05-07T14:25:24;6.32;;;3.45;;
59972;SDS011;55298;-36.624;-64.282;2023-05-07T14:27:52;5.43;;;2.95;;
59972;SDS011;55298;-36.624;-64.282;2023-05-07T14:30:20;11.05;;;5.43;;
59972;SDS011;55298;-36.624;-64.282;2023-05-07T14:32:50;6.25;;;3.92;;
59972;SDS011;55298;-36.624;-64.282;2023-05-07T14:35:21;7.85;;;4.00;;
59972;SDS011;55298;-36.624;-64.282;2023-05-07T14:37:49;7.82;;;4.18;;